Time;durP1;ratioP1;P1;durP2;ratioP2;P2;SDS_P1;SDS_P2;PMS_P1;PMS_P2;Temp;Humidity;BMP_temperature;BMP_pressure;BME280_temperature;BME280_humidity;BME280_pressure;Samples;Min_cycle;Max_cycle;Signal;HPM_P1;HPM_P2
2022/01/15 00:00:34;;;;;;;;;;;;;;;;;;1284886;23;1048;-73
2022/01/15 00:01:14;;;;;;;;;;;;;;;;;;1287690;23;3729;-73
2022/01/15 00:01:44;;;;;;;;;;;;;;;;;;1280435;23;3902;-73
2022/01/15 00:02:15;;;;;;;;;;;;;;;;;;1281077;23;1217;-74
2022/01/15 00:02:45;;;;;;;;;;;;;;;;;;1280684;23;3751;-74
2022/01/15 00:03:16;;;;;;;;;;;;;;;;;;1281176;23;1417;-74
2022/01/15 00:03:46;;;;;;;;;;;;;;;;;;1287195;23;3672;-73
2022/01/15 00:04:17;;;;;;;;;;;;;;;;;;1287687;23;1342;-73
2022/01/15 00:04:47;;;;;;;;;;;;;;;;;;1287523;23;3729;-74
2022/01/15 00:05:17;;;;;;;;;;;;;;;;;;1287289;23;1491;-73
2022/01/15 00:05:47;;;;;;;;;;;;;;;;;;1287132;23;3682;-74
2022/01/15 00:06:18;;;;;;;;;;;;;;;;;;1287929;23;1393;-74
2022/01/15 00:06:48;;;;;;;;;;;;;;;;;;1280916;23;3679;-74
2022/01/15 00:07:18;;;;;;;;;;;;;;;;;;1281349;23;1182;-73
2022/01/15 00:07:48;;;;;;;;;;;;;;;;;;1279770;23;3658;-74
2022/01/15 00:08:19;;;;;;;;;;;;;;;;;;1281672;23;859;-73
2022/01/15 00:08:49;;;;;;;;;;;;;;;;;;1280275;23;3691;-73
2022/01/15 00:09:19;;;;;;;;;;;;;;;;;;1281503;23;838;-73
2022/01/15 00:09:50;;;;;;;;;;;;;;;;;;1280005;23;3695;-74
2022/01/15 00:10:25;;;;;;;;;;;;;;;;;;1281599;23;845;-74
2022/01/15 00:10:56;;;;;;;;;;;;;;;;;;1286668;23;3898;-72
2022/01/15 00:11:26;;;;;;;;;;;;;;;;;;1288439;23;1376;-74
2022/01/15 00:11:56;;;;;;;;;;;;;;;;;;1286855;23;3707;-74
2022/01/15 00:12:28;;;;;;;;;;;;;;;;;;1287786;23;1192;-73
2022/01/15 00:12:59;;;;;;;;;;;;;;;;;;1286242;23;3672;-73
2022/01/15 00:13:31;;;;;;;;;;;;;;;;;;1287384;23;813;-72
2022/01/15 00:15:00;;;;;;;;;;;;;;;;;;1281707;23;3878;-73
2022/01/15 00:15:34;;;;;;;;;;;;;;;;;;1286981;23;1014;-73
2022/01/15 00:16:10;;;;;;;;;;;;;;;;;;1287129;23;3646;-73
2022/01/15 00:16:56;;;;;;;;;;;;;;;;;;1287913;23;1117;-74
2022/01/15 00:18:01;;;;;;;;;;;;;;;;;;1287585;23;3717;-74
2022/01/15 00:18:39;;;;;;;;;;;;;;;;;;1283654;23;3583;-73
2022/01/15 00:19:11;;;;;;;;;;;;;;;;;;1286638;23;3665;-73
2022/01/15 00:19:42;;;;;;;;;;;;;;;;;;1288262;23;969;-74
2022/01/15 00:20:16;;;;;;;;;;;;;;;;;;1287228;23;3690;-73
2022/01/15 00:20:46;;;;;;;;;;;;;;;;;;1287191;23;3676;-73
2022/01/15 00:21:16;;;;;;;;;;;;;;;;;;1287473;23;971;-74
2022/01/15 00:21:47;;;;;;;;;;;;;;;;;;1287110;23;3823;-73
2022/01/15 00:22:17;;;;;;;;;;;;;;;;;;1287137;23;1248;-74
2022/01/15 00:22:48;;;;;;;;;;;;;;;;;;1287629;23;3672;-74
2022/01/15 00:23:18;;;;;;;;;;;;;;;;;;1287988;23;815;-73
2022/01/15 00:23:49;;;;;;;;;;;;;;;;;;1286583;23;3828;-74
2022/01/15 00:24:19;;;;;;;;;;;;;;;;;;1288508;23;965;-73
2022/01/15 00:24:49;;;;;;;;;;;;;;;;;;1286578;23;3658;-73
2022/01/15 00:25:20;;;;;;;;;;;;;;;;;;1287900;23;1206;-74
2022/01/15 00:25:50;;;;;;;;;;;;;;;;;;1286628;23;3658;-73
2022/01/15 00:26:21;;;;;;;;;;;;;;;;;;1288442;23;886;-72
2022/01/15 00:26:51;;;;;;;;;;;;;;;;;;1286181;23;3725;-73
2022/01/15 00:27:21;;;;;;;;;;;;;;;;;;1288045;23;1503;-74
2022/01/15 00:27:52;;;;;;;;;;;;;;;;;;1287333;23;3666;-73
2022/01/15 00:28:22;;;;;;;;;;;;;;;;;;1287923;23;861;-73
2022/01/15 00:28:52;;;;;;;;;;;;;;;;;;1287057;23;3676;-73
2022/01/15 00:29:23;;;;;;;;;;;;;;;;;;1281777;23;938;-74
2022/01/15 00:29:53;;;;;;;;;;;;;;;;;;1280182;23;3677;-72
2022/01/15 00:30:24;;;;;;;;;;;;;;;;;;1281133;23;1372;-73
2022/01/15 00:30:54;;;;;;;;;;;;;;;;;;1280629;23;3670;-73
2022/01/15 00:31:24;;;;;;;;;;;;;;;;;;1286924;23;1336;-74
2022/01/15 00:31:54;;;;;;;;;;;;;;;;;;1286944;23;3669;-73
2022/01/15 00:32:24;;;;;;;;;;;;;;;;;;1288486;23;878;-73
2022/01/15 00:32:55;;;;;;;;;;;;;;;;;;1287130;23;3698;-74
2022/01/15 00:33:26;;;;;;;;;;;;;;;;;;1287960;23;1249;-73
2022/01/15 00:33:56;;;;;;;;;;;;;;;;;;1286189;23;3698;-73
2022/01/15 00:34:27;;;;;;;;;;;;;;;;;;1288388;23;1310;-72
2022/01/15 00:34:58;;;;;;;;;;;;;;;;;;1286645;23;3677;-72
2022/01/15 00:35:29;;;;;;;;;;;;;;;;;;1281266;23;882;-74
2022/01/15 00:35:59;;;;;;;;;;;;;;;;;;1281044;23;3675;-72
2022/01/15 00:36:29;;;;;;;;;;;;;;;;;;1280614;23;1275;-72
2022/01/15 00:36:59;;;;;;;;;;;;;;;;;;1280689;23;3667;-73
2022/01/15 00:37:33;;;;;;;;;;;;;;;;;;1280967;23;1279;-72
2022/01/15 00:38:03;;;;;;;;;;;;;;;;;;1280925;23;3703;-74
2022/01/15 00:38:34;;;;;;;;;;;;;;;;;;1281356;23;961;-73
2022/01/15 00:39:04;;;;;;;;;;;;;;;;;;1281236;23;3689;-74
2022/01/15 00:39:34;;;;;;;;;;;;;;;;;;1287494;23;1152;-74
2022/01/15 00:40:07;;;;;;;;;;;;;;;;;;1286997;23;3648;-74
2022/01/15 00:40:37;;;;;;;;;;;;;;;;;;1287539;23;843;-73
2022/01/15 00:41:08;;;;;;;;;;;;;;;;;;1286869;23;3677;-73
2022/01/15 00:41:38;;;;;;;;;;;;;;;;;;1281147;23;1950;-74
2022/01/15 00:42:09;;;;;;;;;;;;;;;;;;1280470;23;3660;-73
2022/01/15 00:42:40;;;;;;;;;;;;;;;;;;1281515;23;1396;-73
2022/01/15 00:43:10;;;;;;;;;;;;;;;;;;1280422;23;3672;-74
2022/01/15 00:43:41;;;;;;;;;;;;;;;;;;1287539;23;1075;-72
2022/01/15 00:44:11;;;;;;;;;;;;;;;;;;1286948;22;3629;-74
2022/01/15 00:44:42;;;;;;;;;;;;;;;;;;1281317;23;954;-73
2022/01/15 00:45:17;;;;;;;;;;;;;;;;;;1280435;23;3812;-73
2022/01/15 00:45:48;;;;;;;;;;;;;;;;;;1280447;23;3905;-74
2022/01/15 00:46:18;;;;;;;;;;;;;;;;;;1283149;23;784;-73
2022/01/15 00:46:48;;;;;;;;;;;;;;;;;;1286260;23;3742;-74
2022/01/15 00:47:18;;;;;;;;;;;;;;;;;;1281611;23;1239;-73
2022/01/15 00:47:50;;;;;;;;;;;;;;;;;;1279665;23;3928;-74
2022/01/15 00:48:20;;;;;;;;;;;;;;;;;;1281699;23;1300;-74
2022/01/15 00:48:50;;;;;;;;;;;;;;;;;;1280678;23;3939;-73
2022/01/15 00:49:20;;;;;;;;;;;;;;;;;;1280439;23;898;-73
2022/01/15 00:49:51;;;;;;;;;;;;;;;;;;1274163;23;3840;-72
2022/01/15 00:50:21;;;;;;;;;;;;;;;;;;1280976;23;1219;-74
2022/01/15 00:50:52;;;;;;;;;;;;;;;;;;1287103;22;3819;-74
2022/01/15 00:51:23;;;;;;;;;;;;;;;;;;1293907;22;1187;-73
2022/01/15 00:51:53;;;;;;;;;;;;;;;;;;1292212;22;3664;-72
2022/01/15 00:52:24;;;;;;;;;;;;;;;;;;1288252;23;1203;-74
2022/01/15 00:52:54;;;;;;;;;;;;;;;;;;1287361;23;3674;-74
2022/01/15 00:53:24;;;;;;;;;;;;;;;;;;1288538;23;1092;-73
2022/01/15 00:53:54;;;;;;;;;;;;;;;;;;1279532;23;3689;-72
2022/01/15 00:54:25;;;;;;;;;;;;;;;;;;1281437;23;1182;-72
2022/01/15 00:54:55;;;;;;;;;;;;;;;;;;1279880;23;3695;-75
2022/01/15 00:55:25;;;;;;;;;;;;;;;;;;1275078;23;855;-73
2022/01/15 00:55:56;;;;;;;;;;;;;;;;;;1280223;23;3691;-72
2022/01/15 00:56:26;;;;;;;;;;;;;;;;;;1281574;23;1091;-73
2022/01/15 00:56:56;;;;;;;;;;;;;;;;;;1280306;23;3670;-72
2022/01/15 00:57:26;;;;;;;;;;;;;;;;;;1287315;23;905;-74
2022/01/15 00:57:57;;;;;;;;;;;;;;;;;;1287131;23;3657;-72
2022/01/15 00:58:27;;;;;;;;;;;;;;;;;;1287829;23;1276;-73
2022/01/15 00:58:57;;;;;;;;;;;;;;;;;;1286962;23;3724;-74
2022/01/15 00:59:27;;;;;;;;;;;;;;;;;;1287506;23;1357;-73
2022/01/15 00:59:58;;;;;;;;;;;;;;;;;;1286389;23;3880;-74
2022/01/15 01:00:28;;;;;;;;;;;;;;;;;;1285292;23;1158;-74
2022/01/15 01:00:58;;;;;;;;;;;;;;;;;;1287139;23;3722;-73
2022/01/15 01:01:29;;;;;;;;;;;;;;;;;;1288025;23;1955;-74
2022/01/15 01:01:59;;;;;;;;;;;;;;;;;;1286985;23;3722;-73
2022/01/15 01:02:29;;;;;;;;;;;;;;;;;;1288271;23;938;-72
2022/01/15 01:02:59;;;;;;;;;;;;;;;;;;1286601;23;3691;-75
2022/01/15 01:03:29;;;;;;;;;;;;;;;;;;1288018;23;903;-73
2022/01/15 01:04:00;;;;;;;;;;;;;;;;;;1286288;23;3750;-74
2022/01/15 01:04:30;;;;;;;;;;;;;;;;;;1287592;23;1539;-73
2022/01/15 01:05:00;;;;;;;;;;;;;;;;;;1286918;23;3694;-74
2022/01/15 01:05:31;;;;;;;;;;;;;;;;;;1287677;23;890;-73
2022/01/15 01:06:01;;;;;;;;;;;;;;;;;;1286858;23;3647;-74
2022/01/15 01:06:31;;;;;;;;;;;;;;;;;;1287907;23;1344;-73
2022/01/15 01:07:01;;;;;;;;;;;;;;;;;;1286925;23;3683;-74
2022/01/15 01:07:32;;;;;;;;;;;;;;;;;;1287477;23;918;-72
2022/01/15 01:08:02;;;;;;;;;;;;;;;;;;1287287;23;3682;-73
2022/01/15 01:08:32;;;;;;;;;;;;;;;;;;1287628;23;1496;-73
2022/01/15 01:09:02;;;;;;;;;;;;;;;;;;1287798;23;3803;-74
2022/01/15 01:10:58;;;;;;;;;;;;;;;;;;1286802;23;3707;-74
2022/01/15 01:11:41;;;;;;;;;;;;;;;;;;1288194;23;783;-74
2022/01/15 01:13:32;;;;;;;;;;;;;;;;;;1273676;23;3942;-73
2022/01/15 01:20:28;;;;;;;;;;;;;;;;;;1286149;23;3758;-74
2022/01/15 01:23:06;;;;;;;;;;;;;;;;;;1280027;23;3848;-73
2022/01/15 01:23:36;;;;;;;;;;;;;;;;;;1286035;23;1157;-75
2022/01/15 01:24:07;;;;;;;;;;;;;;;;;;1286747;23;3967;-73
2022/01/15 01:24:37;;;;;;;;;;;;;;;;;;1288201;23;1280;-73
2022/01/15 01:25:07;;;;;;;;;;;;;;;;;;1286614;23;3647;-72
2022/01/15 01:25:44;;;;;;;;;;;;;;;;;;1293516;22;1623;-72
2022/01/15 01:26:43;;;;;;;;;;;;;;;;;;1293122;22;3625;-72
2022/01/15 01:27:22;;;;;;;;;;;;;;;;;;1291676;22;3887;-74
2022/01/15 01:27:56;;;;;;;;;;;;;;;;;;1280217;23;3694;-73
2022/01/15 01:28:34;;;;;;;;;;;;;;;;;;1281365;23;1433;-73
2022/01/15 01:29:16;;;;;;;;;;;;;;;;;;1280638;23;3682;-73
2022/01/15 01:31:37;;;;;;;;;;;;;;;;;;1281055;23;890;-73
2022/01/15 01:32:26;;;;;;;;;;;;;;;;;;1274369;23;3684;-73
2022/01/15 01:33:18;;;;;;;;;;;;;;;;;;1280776;23;3657;-72
2022/01/15 01:33:53;;;;;;;;;;;;;;;;;;1288305;22;3722;-73
2022/01/15 01:34:26;;;;;;;;;;;;;;;;;;1293780;22;961;-73
2022/01/15 01:34:56;;;;;;;;;;;;;;;;;;1280802;23;3838;-73
2022/01/15 01:35:35;;;;;;;;;;;;;;;;;;1281004;23;1276;-73
2022/01/15 01:36:55;;;;;;;;;;;;;;;;;;1284232;23;945;-74
2022/01/15 01:37:35;;;;;;;;;;;;;;;;;;1288011;23;3581;-72
2022/01/15 01:38:14;;;;;;;;;;;;;;;;;;1280089;23;3923;-73
2022/01/15 01:38:58;;;;;;;;;;;;;;;;;;1281406;23;3917;-73
2022/01/15 01:40:51;;;;;;;;;;;;;;;;;;1278894;23;3856;-73
2022/01/15 01:41:22;;;;;;;;;;;;;;;;;;1268795;23;1342;-75
2022/01/15 01:43:05;;;;;;;;;;;;;;;;;;1256030;23;3697;-75
2022/01/15 01:44:08;;;;;;;;;;;;;;;;;;1280630;22;3711;-74
2022/01/15 01:44:42;;;;;;;;;;;;;;;;;;1293984;22;864;-75
2022/01/15 01:45:14;;;;;;;;;;;;;;;;;;1293210;22;4732;-74
2022/01/15 01:45:49;;;;;;;;;;;;;;;;;;1292829;22;3659;-73
2022/01/15 01:47:01;;;;;;;;;;;;;;;;;;1292793;22;3660;-72
2022/01/15 01:47:39;;;;;;;;;;;;;;;;;;1287640;23;1411;-74
2022/01/15 01:48:09;;;;;;;;;;;;;;;;;;1286657;23;3798;-74
2022/01/15 01:48:40;;;;;;;;;;;;;;;;;;1286975;23;772;-73
2022/01/15 01:49:13;;;;;;;;;;;;;;;;;;1288199;22;3658;-73
2022/01/15 01:49:43;;;;;;;;;;;;;;;;;;1293488;22;3690;-73
2022/01/15 01:50:13;;;;;;;;;;;;;;;;;;1286873;23;1392;-74
2022/01/15 01:50:43;;;;;;;;;;;;;;;;;;1285890;23;3715;-73
2022/01/15 01:51:21;;;;;;;;;;;;;;;;;;1287444;23;843;-74
2022/01/15 01:51:51;;;;;;;;;;;;;;;;;;1287901;22;3893;-74
2022/01/15 01:52:21;;;;;;;;;;;;;;;;;;1294334;22;1558;-73
2022/01/15 01:52:54;;;;;;;;;;;;;;;;;;1286376;23;3763;-74
2022/01/15 01:53:24;;;;;;;;;;;;;;;;;;1287433;23;969;-73
2022/01/15 01:53:54;;;;;;;;;;;;;;;;;;1285543;23;3649;-73
2022/01/15 01:54:25;;;;;;;;;;;;;;;;;;1288050;22;1373;-73
2022/01/15 01:54:55;;;;;;;;;;;;;;;;;;1292050;22;3698;-74
2022/01/15 01:55:26;;;;;;;;;;;;;;;;;;1294126;22;874;-74
2022/01/15 01:55:57;;;;;;;;;;;;;;;;;;1292966;22;4705;-74
2022/01/15 01:56:27;;;;;;;;;;;;;;;;;;1293839;22;1207;-73
2022/01/15 01:56:58;;;;;;;;;;;;;;;;;;1293619;22;3690;-73
2022/01/15 01:57:28;;;;;;;;;;;;;;;;;;1294037;22;922;-74
2022/01/15 01:57:58;;;;;;;;;;;;;;;;;;1286766;23;3731;-73
2022/01/15 01:58:29;;;;;;;;;;;;;;;;;;1287093;23;952;-74
2022/01/15 01:58:59;;;;;;;;;;;;;;;;;;1286786;23;3689;-74
2022/01/15 01:59:30;;;;;;;;;;;;;;;;;;1287291;22;870;-73
2022/01/15 02:00:02;;;;;;;;;;;;;;;;;;1293242;22;3655;-72
2022/01/15 02:00:32;;;;;;;;;;;;;;;;;;1290996;22;1210;-72
2022/01/15 02:01:02;;;;;;;;;;;;;;;;;;1292080;22;3682;-74
2022/01/15 02:01:33;;;;;;;;;;;;;;;;;;1293852;22;1947;-73
2022/01/15 02:02:03;;;;;;;;;;;;;;;;;;1293150;22;3653;-73
2022/01/15 02:02:35;;;;;;;;;;;;;;;;;;1287625;23;1021;-73
2022/01/15 02:03:05;;;;;;;;;;;;;;;;;;1286250;23;3916;-73
2022/01/15 02:03:35;;;;;;;;;;;;;;;;;;1287317;23;1290;-73
2022/01/15 02:04:06;;;;;;;;;;;;;;;;;;1286013;22;3652;-73
2022/01/15 02:04:36;;;;;;;;;;;;;;;;;;1294104;22;1008;-74
2022/01/15 02:05:07;;;;;;;;;;;;;;;;;;1292965;22;3729;-73
2022/01/15 02:05:39;;;;;;;;;;;;;;;;;;1294142;22;1128;-73
2022/01/15 02:06:09;;;;;;;;;;;;;;;;;;1286787;23;3821;-73
2022/01/15 02:06:39;;;;;;;;;;;;;;;;;;1287089;23;928;-74
2022/01/15 02:07:10;;;;;;;;;;;;;;;;;;1286928;23;3820;-74
2022/01/15 02:07:41;;;;;;;;;;;;;;;;;;1280875;23;985;-74
2022/01/15 02:08:11;;;;;;;;;;;;;;;;;;1286953;23;3733;-72
2022/01/15 02:08:41;;;;;;;;;;;;;;;;;;1287750;23;771;-73
2022/01/15 02:09:12;;;;;;;;;;;;;;;;;;1280065;23;3646;-72
2022/01/15 02:09:42;;;;;;;;;;;;;;;;;;1286624;23;3647;-73
2022/01/15 02:10:15;;;;;;;;;;;;;;;;;;1285975;23;922;-74
2022/01/15 02:10:45;;;;;;;;;;;;;;;;;;1287242;22;3691;-72
2022/01/15 02:11:16;;;;;;;;;;;;;;;;;;1293007;22;1289;-73
2022/01/15 02:11:46;;;;;;;;;;;;;;;;;;1292648;22;3867;-72
2022/01/15 02:12:16;;;;;;;;;;;;;;;;;;1293279;22;865;-74
2022/01/15 02:12:48;;;;;;;;;;;;;;;;;;1293795;22;3674;-74
2022/01/15 02:13:18;;;;;;;;;;;;;;;;;;1287302;23;1466;-74
2022/01/15 02:13:48;;;;;;;;;;;;;;;;;;1285840;23;3664;-72
2022/01/15 02:14:29;;;;;;;;;;;;;;;;;;1287225;23;1316;-73
2022/01/15 02:15:19;;;;;;;;;;;;;;;;;;1288071;22;3806;-73
2022/01/15 02:15:49;;;;;;;;;;;;;;;;;;1292984;22;3685;-74
2022/01/15 02:16:21;;;;;;;;;;;;;;;;;;1294241;22;1240;-73
2022/01/15 02:16:51;;;;;;;;;;;;;;;;;;1292013;22;3742;-73
2022/01/15 02:17:22;;;;;;;;;;;;;;;;;;1294166;22;1027;-74
2022/01/15 02:17:53;;;;;;;;;;;;;;;;;;1293664;22;3653;-74
2022/01/15 02:18:24;;;;;;;;;;;;;;;;;;1294212;22;1103;-73
2022/01/15 02:18:55;;;;;;;;;;;;;;;;;;1293066;22;3670;-74
2022/01/15 02:19:29;;;;;;;;;;;;;;;;;;1294018;22;1228;-73
2022/01/15 02:23:59;;;;;;;;;;;;;;;;;;1281108;23;3696;-73
2022/01/15 02:24:29;;;;;;;;;;;;;;;;;;1287800;23;866;-72
2022/01/15 02:24:59;;;;;;;;;;;;;;;;;;1285833;23;3659;-73
2022/01/15 02:25:59;;;;;;;;;;;;;;;;;;1287512;23;810;-73
2022/01/15 02:26:29;;;;;;;;;;;;;;;;;;1267886;23;3567;-73
2022/01/15 02:26:59;;;;;;;;;;;;;;;;;;1286010;23;3817;-74
2022/01/15 02:27:32;;;;;;;;;;;;;;;;;;1286599;23;1226;-73
2022/01/15 02:28:02;;;;;;;;;;;;;;;;;;1291395;22;3666;-74
2022/01/15 02:28:39;;;;;;;;;;;;;;;;;;1293992;22;1093;-73
2022/01/15 02:29:10;;;;;;;;;;;;;;;;;;1286721;23;3698;-75
2022/01/15 02:29:40;;;;;;;;;;;;;;;;;;1287001;23;981;-73
2022/01/15 02:30:11;;;;;;;;;;;;;;;;;;1285974;23;4092;-73
2022/01/15 02:30:41;;;;;;;;;;;;;;;;;;1281944;23;1278;-73
2022/01/15 02:31:15;;;;;;;;;;;;;;;;;;1286705;23;3666;-73
2022/01/15 02:31:45;;;;;;;;;;;;;;;;;;1287288;23;3673;-73
2022/01/15 02:32:15;;;;;;;;;;;;;;;;;;1287755;22;916;-72
2022/01/15 02:32:45;;;;;;;;;;;;;;;;;;1287255;23;3688;-72
2022/01/15 02:33:16;;;;;;;;;;;;;;;;;;1287450;23;867;-73
2022/01/15 02:33:47;;;;;;;;;;;;;;;;;;1287127;23;3771;-73
2022/01/15 02:34:18;;;;;;;;;;;;;;;;;;1287085;22;1267;-73
2022/01/15 02:34:48;;;;;;;;;;;;;;;;;;1286873;23;3717;-74
2022/01/15 02:35:18;;;;;;;;;;;;;;;;;;1287119;23;1286;-74
2022/01/15 02:35:49;;;;;;;;;;;;;;;;;;1286614;23;3813;-74
2022/01/15 02:36:23;;;;;;;;;;;;;;;;;;1281678;23;1218;-72
2022/01/15 02:36:54;;;;;;;;;;;;;;;;;;1287009;23;3755;-72
2022/01/15 02:37:24;;;;;;;;;;;;;;;;;;1287996;23;937;-72
2022/01/15 02:37:54;;;;;;;;;;;;;;;;;;1286927;22;3668;-74
2022/01/15 02:38:25;;;;;;;;;;;;;;;;;;1294651;22;897;-73
2022/01/15 02:38:56;;;;;;;;;;;;;;;;;;1293336;22;3664;-73
2022/01/15 02:39:26;;;;;;;;;;;;;;;;;;1294346;22;1581;-74
2022/01/15 02:39:57;;;;;;;;;;;;;;;;;;1286877;23;3667;-73
2022/01/15 02:40:28;;;;;;;;;;;;;;;;;;1287387;23;940;-73
2022/01/15 02:40:58;;;;;;;;;;;;;;;;;;1287132;23;3949;-74
2022/01/15 02:41:47;;;;;;;;;;;;;;;;;;1287637;22;1944;-73
2022/01/15 02:42:17;;;;;;;;;;;;;;;;;;1293582;22;3626;-74
2022/01/15 02:42:47;;;;;;;;;;;;;;;;;;1294061;22;3650;-74
2022/01/15 02:43:20;;;;;;;;;;;;;;;;;;1294175;22;965;-73
2022/01/15 02:43:51;;;;;;;;;;;;;;;;;;1293583;22;3675;-72
2022/01/15 02:44:21;;;;;;;;;;;;;;;;;;1287842;22;1541;-74
2022/01/15 02:44:58;;;;;;;;;;;;;;;;;;1286514;23;3707;-73
2022/01/15 02:45:30;;;;;;;;;;;;;;;;;;1287520;23;878;-74
2022/01/15 02:46:18;;;;;;;;;;;;;;;;;;1287416;23;3940;-73
2022/01/15 02:48:11;;;;;;;;;;;;;;;;;;1280081;23;3880;-73
2022/01/15 02:48:42;;;;;;;;;;;;;;;;;;1281552;23;1345;-75
2022/01/15 02:49:12;;;;;;;;;;;;;;;;;;1280723;23;3787;-74
2022/01/15 02:49:42;;;;;;;;;;;;;;;;;;1275394;23;1230;-74
2022/01/15 02:50:12;;;;;;;;;;;;;;;;;;1280188;23;3730;-73
2022/01/15 02:50:43;;;;;;;;;;;;;;;;;;1280633;23;3715;-73
2022/01/15 02:51:14;;;;;;;;;;;;;;;;;;1281282;23;1070;-73
2022/01/15 02:51:44;;;;;;;;;;;;;;;;;;1286918;23;3698;-73
2022/01/15 02:52:14;;;;;;;;;;;;;;;;;;1288509;23;1473;-74
2022/01/15 02:52:45;;;;;;;;;;;;;;;;;;1287312;23;3811;-73
2022/01/15 02:53:18;;;;;;;;;;;;;;;;;;1280999;23;1306;-73
2022/01/15 02:53:54;;;;;;;;;;;;;;;;;;1280303;23;5117;-72
2022/01/15 02:54:25;;;;;;;;;;;;;;;;;;1280817;23;1647;-72
2022/01/15 02:54:55;;;;;;;;;;;;;;;;;;1281462;23;3665;-73
2022/01/15 02:55:25;;;;;;;;;;;;;;;;;;1288529;23;922;-73
2022/01/15 02:55:55;;;;;;;;;;;;;;;;;;1287416;23;3661;-73
2022/01/15 02:56:28;;;;;;;;;;;;;;;;;;1281329;23;1352;-74
2022/01/15 02:57:04;;;;;;;;;;;;;;;;;;1280366;23;3705;-73
2022/01/15 02:57:34;;;;;;;;;;;;;;;;;;1280899;23;1364;-73
2022/01/15 02:58:05;;;;;;;;;;;;;;;;;;1282732;23;3649;-73
2022/01/15 02:58:35;;;;;;;;;;;;;;;;;;1287474;23;1384;-73
2022/01/15 02:59:07;;;;;;;;;;;;;;;;;;1287347;23;3664;-73
2022/01/15 02:59:37;;;;;;;;;;;;;;;;;;1287749;23;1390;-74
2022/01/15 03:00:08;;;;;;;;;;;;;;;;;;1283396;23;3650;-74
2022/01/15 03:00:38;;;;;;;;;;;;;;;;;;1287008;23;883;-74
2022/01/15 03:01:08;;;;;;;;;;;;;;;;;;1287626;23;3686;-73
2022/01/15 03:01:39;;;;;;;;;;;;;;;;;;1287146;23;1928;-73
2022/01/15 03:02:09;;;;;;;;;;;;;;;;;;1287978;23;3872;-72
2022/01/15 03:02:39;;;;;;;;;;;;;;;;;;1287770;23;826;-73
2022/01/15 03:03:09;;;;;;;;;;;;;;;;;;1280569;23;3791;-73
2022/01/15 03:03:40;;;;;;;;;;;;;;;;;;1281119;23;776;-73
2022/01/15 03:04:10;;;;;;;;;;;;;;;;;;1280523;23;3670;-72
2022/01/15 03:04:40;;;;;;;;;;;;;;;;;;1280988;23;789;-73
2022/01/15 03:05:11;;;;;;;;;;;;;;;;;;1287372;23;3893;-73
2022/01/15 03:05:41;;;;;;;;;;;;;;;;;;1287551;23;1418;-74
2022/01/15 03:06:15;;;;;;;;;;;;;;;;;;1287488;23;3626;-73
2022/01/15 03:06:46;;;;;;;;;;;;;;;;;;1287735;23;3674;-73
2022/01/15 03:07:16;;;;;;;;;;;;;;;;;;1287969;23;985;-73
2022/01/15 03:07:47;;;;;;;;;;;;;;;;;;1287300;23;3752;-73
2022/01/15 03:08:17;;;;;;;;;;;;;;;;;;1288473;23;1282;-73
2022/01/15 03:08:48;;;;;;;;;;;;;;;;;;1280069;23;3719;-74
2022/01/15 03:09:18;;;;;;;;;;;;;;;;;;1281514;23;989;-73
2022/01/15 03:09:48;;;;;;;;;;;;;;;;;;1280562;23;3692;-73
2022/01/15 03:10:19;;;;;;;;;;;;;;;;;;1281059;23;858;-73
2022/01/15 03:10:49;;;;;;;;;;;;;;;;;;1287695;23;3988;-73
2022/01/15 03:11:20;;;;;;;;;;;;;;;;;;1287436;23;1385;-73
2022/01/15 03:11:50;;;;;;;;;;;;;;;;;;1287146;23;3675;-73
2022/01/15 03:12:21;;;;;;;;;;;;;;;;;;1288010;23;1004;-74
2022/01/15 03:12:54;;;;;;;;;;;;;;;;;;1287516;23;3693;-73
2022/01/15 03:13:24;;;;;;;;;;;;;;;;;;1287796;23;1195;-73
2022/01/15 03:13:54;;;;;;;;;;;;;;;;;;1287175;23;3678;-73
2022/01/15 03:14:25;;;;;;;;;;;;;;;;;;1287981;23;1394;-72
2022/01/15 03:15:00;;;;;;;;;;;;;;;;;;1286769;23;3854;-73
2022/01/15 03:15:30;;;;;;;;;;;;;;;;;;1287361;23;1254;-73
2022/01/15 03:16:01;;;;;;;;;;;;;;;;;;1287504;23;3670;-72
2022/01/15 03:16:31;;;;;;;;;;;;;;;;;;1288259;23;972;-73
2022/01/15 03:17:01;;;;;;;;;;;;;;;;;;1286996;23;3735;-75
2022/01/15 03:17:32;;;;;;;;;;;;;;;;;;1287701;23;1478;-73
2022/01/15 03:18:02;;;;;;;;;;;;;;;;;;1287201;23;3679;-73
2022/01/15 03:18:33;;;;;;;;;;;;;;;;;;1288311;23;755;-74
2022/01/15 03:19:03;;;;;;;;;;;;;;;;;;1287007;23;3666;-74
2022/01/15 03:19:33;;;;;;;;;;;;;;;;;;1287761;23;1346;-73
2022/01/15 03:20:04;;;;;;;;;;;;;;;;;;1287380;23;3685;-74
2022/01/15 03:20:35;;;;;;;;;;;;;;;;;;1281005;23;960;-74
2022/01/15 03:21:05;;;;;;;;;;;;;;;;;;1273703;23;3705;-74
2022/01/15 03:21:35;;;;;;;;;;;;;;;;;;1273844;23;2000;-73
2022/01/15 03:22:06;;;;;;;;;;;;;;;;;;1274624;23;3685;-73
2022/01/15 03:22:36;;;;;;;;;;;;;;;;;;1281414;23;1125;-73
2022/01/15 03:23:06;;;;;;;;;;;;;;;;;;1287048;23;3840;-73
2022/01/15 03:23:37;;;;;;;;;;;;;;;;;;1287842;23;1266;-74
2022/01/15 03:24:07;;;;;;;;;;;;;;;;;;1286641;23;3671;-73
2022/01/15 03:24:37;;;;;;;;;;;;;;;;;;1287654;23;862;-73
2022/01/15 03:25:08;;;;;;;;;;;;;;;;;;1287624;23;3670;-74
2022/01/15 03:25:38;;;;;;;;;;;;;;;;;;1281113;23;1211;-73
2022/01/15 03:26:09;;;;;;;;;;;;;;;;;;1281090;23;4038;-74
2022/01/15 03:26:39;;;;;;;;;;;;;;;;;;1280885;23;1273;-73
2022/01/15 03:27:09;;;;;;;;;;;;;;;;;;1280508;23;3642;-73
2022/01/15 03:27:40;;;;;;;;;;;;;;;;;;1288134;23;874;-73
2022/01/15 03:28:10;;;;;;;;;;;;;;;;;;1287476;23;3652;-73
2022/01/15 03:28:41;;;;;;;;;;;;;;;;;;1287928;23;1058;-73
2022/01/15 03:29:11;;;;;;;;;;;;;;;;;;1287683;23;3658;-74
2022/01/15 03:29:41;;;;;;;;;;;;;;;;;;1287613;23;873;-72
2022/01/15 03:30:12;;;;;;;;;;;;;;;;;;1287801;23;3671;-73
2022/01/15 03:30:43;;;;;;;;;;;;;;;;;;1287157;23;3853;-73
2022/01/15 03:31:14;;;;;;;;;;;;;;;;;;1287739;23;870;-73
2022/01/15 03:31:44;;;;;;;;;;;;;;;;;;1286828;23;3812;-74
2022/01/15 03:32:14;;;;;;;;;;;;;;;;;;1280484;23;894;-73
2022/01/15 03:32:45;;;;;;;;;;;;;;;;;;1275560;23;3728;-74
2022/01/15 03:33:15;;;;;;;;;;;;;;;;;;1279682;23;950;-74
2022/01/15 03:33:45;;;;;;;;;;;;;;;;;;1276272;23;3742;-74
2022/01/15 03:34:15;;;;;;;;;;;;;;;;;;1285724;23;922;-74
2022/01/15 03:34:46;;;;;;;;;;;;;;;;;;1285668;23;3696;-73
2022/01/15 03:35:17;;;;;;;;;;;;;;;;;;1286312;23;1333;-73
2022/01/15 03:35:48;;;;;;;;;;;;;;;;;;1286073;23;3692;-73
2022/01/15 03:36:18;;;;;;;;;;;;;;;;;;1286666;23;1207;-73
2022/01/15 03:36:48;;;;;;;;;;;;;;;;;;1282961;23;3750;-74
2022/01/15 03:37:18;;;;;;;;;;;;;;;;;;1286357;23;858;-74
2022/01/15 03:37:49;;;;;;;;;;;;;;;;;;1285735;23;3670;-74
2022/01/15 03:38:19;;;;;;;;;;;;;;;;;;1285436;23;1331;-72
2022/01/15 03:38:49;;;;;;;;;;;;;;;;;;1285980;23;3673;-73
2022/01/15 03:39:19;;;;;;;;;;;;;;;;;;1280199;23;951;-74
2022/01/15 03:39:50;;;;;;;;;;;;;;;;;;1279198;23;3655;-74
2022/01/15 03:40:20;;;;;;;;;;;;;;;;;;1280785;23;1668;-76
2022/01/15 03:40:53;;;;;;;;;;;;;;;;;;1279102;23;3653;-73
2022/01/15 03:41:23;;;;;;;;;;;;;;;;;;1286808;23;930;-74
2022/01/15 03:41:53;;;;;;;;;;;;;;;;;;1286768;23;3770;-73
2022/01/15 03:42:24;;;;;;;;;;;;;;;;;;1287019;23;950;-73
2022/01/15 03:42:54;;;;;;;;;;;;;;;;;;1279265;23;3683;-72
2022/01/15 03:43:25;;;;;;;;;;;;;;;;;;1274650;23;1155;-73
2022/01/15 03:43:55;;;;;;;;;;;;;;;;;;1273991;23;3643;-74
2022/01/15 03:44:25;;;;;;;;;;;;;;;;;;1274804;23;812;-74
2022/01/15 03:44:56;;;;;;;;;;;;;;;;;;1279283;23;3694;-73
2022/01/15 03:45:26;;;;;;;;;;;;;;;;;;1287154;23;1210;-73
2022/01/15 03:45:56;;;;;;;;;;;;;;;;;;1284532;23;3646;-74
2022/01/15 03:46:26;;;;;;;;;;;;;;;;;;1287222;23;1204;-73
2022/01/15 03:46:57;;;;;;;;;;;;;;;;;;1286593;23;3768;-73
2022/01/15 03:47:27;;;;;;;;;;;;;;;;;;1287332;23;1276;-74
2022/01/15 03:47:57;;;;;;;;;;;;;;;;;;1287148;23;3716;-73
2022/01/15 03:48:28;;;;;;;;;;;;;;;;;;1287498;23;1306;-75
2022/01/15 03:48:58;;;;;;;;;;;;;;;;;;1286555;23;3702;-73
2022/01/15 03:49:28;;;;;;;;;;;;;;;;;;1286969;23;906;-73
2022/01/15 03:49:58;;;;;;;;;;;;;;;;;;1286582;23;3822;-73
2022/01/15 03:50:29;;;;;;;;;;;;;;;;;;1287355;23;953;-74
2022/01/15 03:50:59;;;;;;;;;;;;;;;;;;1285885;23;3678;-76
2022/01/15 03:51:29;;;;;;;;;;;;;;;;;;1279697;23;1198;-75
2022/01/15 03:51:59;;;;;;;;;;;;;;;;;;1279741;23;3667;-72
2022/01/15 03:52:30;;;;;;;;;;;;;;;;;;1280507;23;1270;-74
2022/01/15 03:53:00;;;;;;;;;;;;;;;;;;1279268;23;3753;-73
2022/01/15 03:53:30;;;;;;;;;;;;;;;;;;1287450;23;1408;-74
2022/01/15 03:54:01;;;;;;;;;;;;;;;;;;1285589;23;3674;-71
2022/01/15 03:54:31;;;;;;;;;;;;;;;;;;1287102;23;1355;-74
2022/01/15 03:55:02;;;;;;;;;;;;;;;;;;1286339;23;3839;-73
2022/01/15 03:55:33;;;;;;;;;;;;;;;;;;1287354;23;815;-73
2022/01/15 03:56:03;;;;;;;;;;;;;;;;;;1286059;23;3658;-73
2022/01/15 03:56:33;;;;;;;;;;;;;;;;;;1287811;23;1274;-73
2022/01/15 03:57:04;;;;;;;;;;;;;;;;;;1286727;23;3666;-74
2022/01/15 03:57:34;;;;;;;;;;;;;;;;;;1287253;23;966;-73
2022/01/15 03:58:05;;;;;;;;;;;;;;;;;;1287065;23;3736;-73
2022/01/15 03:58:35;;;;;;;;;;;;;;;;;;1287183;23;1308;-73
2022/01/15 03:59:05;;;;;;;;;;;;;;;;;;1286443;23;3702;-73
2022/01/15 03:59:36;;;;;;;;;;;;;;;;;;1287546;23;903;-73
2022/01/15 04:00:08;;;;;;;;;;;;;;;;;;1282833;23;3652;-72
2022/01/15 04:00:38;;;;;;;;;;;;;;;;;;1286507;23;3855;-73
2022/01/15 04:01:08;;;;;;;;;;;;;;;;;;1287506;23;1128;-74
2022/01/15 04:01:38;;;;;;;;;;;;;;;;;;1286460;23;3753;-73
2022/01/15 04:02:09;;;;;;;;;;;;;;;;;;1286671;23;1421;-73
2022/01/15 04:02:39;;;;;;;;;;;;;;;;;;1286524;23;3697;-73
2022/01/15 04:03:09;;;;;;;;;;;;;;;;;;1287103;23;937;-73
2022/01/15 04:03:40;;;;;;;;;;;;;;;;;;1285676;23;3725;-74